sensor_id;sensor_type;location;lat;lon;timestamp;P1;durP1;ratioP1;P2;durP2;ratioP2
66707;SDS011;53622;0.000;0.000;2023-03-25T00:01:20;1.30;;;1.20;;
66707;SDS011;53622;0.000;0.000;2023-03-25T00:03:53;2.60;;;1.67;;
66707;SDS011;53622;0.000;0.000;2023-03-25T00:06:24;2.83;;;1.52;;
66707;SDS011;53622;0.000;0.000;2023-03-25T00:08:55;1.67;;;1.30;;
66707;SDS011;53622;0.000;0.000;2023-03-25T00:11:24;2.55;;;1.30;;
66707;SDS011;53622;0.000;0.000;2023-03-25T00:13:55;4.07;;;1.40;;
66707;SDS011;53622;0.000;0.000;2023-03-25T00:16:24;2.55;;;1.30;;
66707;SDS011;53622;0.000;0.000;2023-03-25T00:18:58;2.50;;;1.50;;
66707;SDS011;53622;0.000;0.000;2023-03-25T00:21:28;1.50;;;1.40;;
66707;SDS011;53622;0.000;0.000;2023-03-25T00:23:59;3.20;;;1.50;;
66707;SDS011;53622;0.000;0.000;2023-03-25T00:26:29;2.97;;;1.45;;
66707;SDS011;53622;0.000;0.000;2023-03-25T00:28:58;1.95;;;1.20;;
66707;SDS011;53622;0.000;0.000;2023-03-25T00:31:28;3.15;;;1.27;;
66707;SDS011;53622;0.000;0.000;2023-03-25T00:33:58;2.47;;;1.40;;
66707;SDS011;53622;0.000;0.000;2023-03-25T00:36:27;1.55;;;1.40;;
66707;SDS011;53622;0.000;0.000;2023-03-25T00:38:57;1.73;;;1.40;;
66707;SDS011;53622;0.000;0.000;2023-03-25T00:41:26;1.65;;;1.30;;
66707;SDS011;53622;0.000;0.000;2023-03-25T00:43:56;1.55;;;1.45;;
66707;SDS011;53622;0.000;0.000;2023-03-25T00:46:30;2.25;;;1.48;;
66707;SDS011;53622;0.000;0.000;2023-03-25T00:49:02;2.03;;;1.35;;
66707;SDS011;53622;0.000;0.000;2023-03-25T00:51:31;3.42;;;1.48;;
66707;SDS011;53622;0.000;0.000;2023-03-25T00:54:19;3.10;;;1.40;;
66707;SDS011;53622;0.000;0.000;2023-03-25T00:56:49;1.42;;;1.30;;
66707;SDS011;53622;0.000;0.000;2023-03-25T00:59:20;2.15;;;1.40;;
66707;SDS011;53622;0.000;0.000;2023-03-25T01:01:49;1.17;;;1.08;;
66707;SDS011;53622;0.000;0.000;2023-03-25T01:04:32;2.85;;;1.17;;
66707;SDS011;53622;0.000;0.000;2023-03-25T01:07:07;4.43;;;1.42;;
66707;SDS011;53622;0.000;0.000;2023-03-25T01:09:37;3.00;;;1.70;;
66707;SDS011;53622;0.000;0.000;2023-03-25T01:12:07;7.18;;;1.30;;
66707;SDS011;53622;0.000;0.000;2023-03-25T01:14:37;1.20;;;1.10;;
66707;SDS011;53622;0.000;0.000;2023-03-25T01:17:07;1.70;;;1.40;;
66707;SDS011;53622;0.000;0.000;2023-03-25T01:19:38;3.83;;;1.60;;
66707;SDS011;53622;0.000;0.000;2023-03-25T01:22:20;1.90;;;1.10;;
66707;SDS011;53622;0.000;0.000;2023-03-25T01:24:49;1.98;;;1.50;;
66707;SDS011;53622;0.000;0.000;2023-03-25T01:27:19;1.92;;;1.13;;
66707;SDS011;53622;0.000;0.000;2023-03-25T01:29:50;2.47;;;1.10;;
66707;SDS011;53622;0.000;0.000;2023-03-25T01:32:20;2.05;;;1.10;;
66707;SDS011;53622;0.000;0.000;2023-03-25T01:34:53;1.33;;;1.08;;
66707;SDS011;53622;0.000;0.000;2023-03-25T01:37:22;2.35;;;1.38;;
66707;SDS011;53622;0.000;0.000;2023-03-25T01:39:53;1.50;;;1.00;;
66707;SDS011;53622;0.000;0.000;2023-03-25T01:42:22;2.25;;;1.20;;
66707;SDS011;53622;0.000;0.000;2023-03-25T01:45:12;2.28;;;1.20;;
66707;SDS011;53622;0.000;0.000;2023-03-25T01:48:03;1.42;;;1.30;;
66707;SDS011;53622;0.000;0.000;2023-03-25T01:50:39;1.40;;;1.20;;
66707;SDS011;53622;0.000;0.000;2023-03-25T01:53:10;1.73;;;1.30;;
66707;SDS011;53622;0.000;0.000;2023-03-25T01:55:40;1.30;;;1.20;;
66707;SDS011;53622;0.000;0.000;2023-03-25T01:58:11;1.23;;;1.13;;
66707;SDS011;53622;0.000;0.000;2023-03-25T02:00:45;2.38;;;1.30;;
66707;SDS011;53622;0.000;0.000;2023-03-25T02:03:16;1.42;;;1.27;;
66707;SDS011;53622;0.000;0.000;2023-03-25T02:05:54;1.20;;;1.10;;
66707;SDS011;53622;0.000;0.000;2023-03-25T02:08:27;1.70;;;1.08;;
66707;SDS011;53622;0.000;0.000;2023-03-25T02:10:58;1.27;;;1.08;;
66707;SDS011;53622;0.000;0.000;2023-03-25T02:13:28;2.97;;;1.42;;
66707;SDS011;53622;0.000;0.000;2023-03-25T02:16:05;2.60;;;1.17;;
66707;SDS011;53622;0.000;0.000;2023-03-25T02:18:48;1.27;;;1.13;;
66707;SDS011;53622;0.000;0.000;2023-03-25T02:24:50;1.20;;;1.00;;
66707;SDS011;53622;0.000;0.000;2023-03-25T02:27:52;1.25;;;1.02;;
66707;SDS011;53622;0.000;0.000;2023-03-25T02:30:44;1.48;;;1.10;;
66707;SDS011;53622;0.000;0.000;2023-03-25T02:33:39;2.63;;;0.90;;
66707;SDS011;53622;0.000;0.000;2023-03-25T02:39:44;1.17;;;1.00;;
66707;SDS011;53622;0.000;0.000;2023-03-25T02:42:22;1.40;;;1.10;;
66707;SDS011;53622;0.000;0.000;2023-03-25T02:45:16;1.23;;;1.10;;
66707;SDS011;53622;0.000;0.000;2023-03-25T02:48:20;2.25;;;1.20;;
66707;SDS011;53622;0.000;0.000;2023-03-25T02:51:58;2.08;;;1.02;;
66707;SDS011;53622;0.000;0.000;2023-03-25T02:57:43;1.48;;;0.90;;
66707;SDS011;53622;0.000;0.000;2023-03-25T03:00:23;1.80;;;1.05;;
66707;SDS011;53622;0.000;0.000;2023-03-25T03:02:55;0.80;;;0.80;;
66707;SDS011;53622;0.000;0.000;2023-03-25T03:05:30;1.75;;;1.10;;
66707;SDS011;53622;0.000;0.000;2023-03-25T03:08:06;2.10;;;1.25;;
66707;SDS011;53622;0.000;0.000;2023-03-25T03:10:51;1.83;;;1.10;;
66707;SDS011;53622;0.000;0.000;2023-03-25T03:13:28;1.63;;;0.93;;
66707;SDS011;53622;0.000;0.000;2023-03-25T03:16:11;1.50;;;0.98;;
66707;SDS011;53622;0.000;0.000;2023-03-25T03:18:49;1.13;;;0.93;;
66707;SDS011;53622;0.000;0.000;2023-03-25T03:21:26;2.22;;;0.98;;
66707;SDS011;53622;0.000;0.000;2023-03-25T03:24:01;1.42;;;1.00;;
66707;SDS011;53622;0.000;0.000;2023-03-25T03:26:39;1.85;;;0.90;;
66707;SDS011;53622;0.000;0.000;2023-03-25T03:29:15;1.30;;;1.20;;
66707;SDS011;53622;0.000;0.000;2023-03-25T03:31:49;1.00;;;0.88;;
66707;SDS011;53622;0.000;0.000;2023-03-25T03:34:35;1.00;;;0.90;;
66707;SDS011;53622;0.000;0.000;2023-03-25T03:37:11;1.55;;;1.00;;
66707;SDS011;53622;0.000;0.000;2023-03-25T03:39:50;2.33;;;1.10;;
66707;SDS011;53622;0.000;0.000;2023-03-25T03:43:34;1.23;;;0.90;;
66707;SDS011;53622;0.000;0.000;2023-03-25T03:50:12;0.98;;;0.80;;
66707;SDS011;53622;0.000;0.000;2023-03-25T03:54:13;1.10;;;1.00;;
66707;SDS011;53622;0.000;0.000;2023-03-25T04:22:09;1.58;;;1.00;;
66707;SDS011;53622;0.000;0.000;2023-03-25T04:26:30;2.03;;;0.90;;
66707;SDS011;53622;0.000;0.000;2023-03-25T06:17:31;0.68;;;0.68;;
66707;SDS011;53622;0.000;0.000;2023-03-25T06:24:45;0.60;;;0.40;;
66707;SDS011;53622;0.000;0.000;2023-03-25T06:27:15;0.90;;;0.85;;
66707;SDS011;53622;0.000;0.000;2023-03-25T06:29:46;1.05;;;0.90;;
66707;SDS011;53622;0.000;0.000;2023-03-25T06:32:15;1.88;;;0.70;;
66707;SDS011;53622;0.000;0.000;2023-03-25T06:34:44;1.95;;;1.35;;
66707;SDS011;53622;0.000;0.000;2023-03-25T06:37:15;1.52;;;0.60;;
66707;SDS011;53622;0.000;0.000;2023-03-25T06:39:46;1.70;;;0.60;;
66707;SDS011;53622;0.000;0.000;2023-03-25T06:42:20;4.38;;;0.95;;
66707;SDS011;53622;0.000;0.000;2023-03-25T06:45:12;1.05;;;0.70;;
66707;SDS011;53622;0.000;0.000;2023-03-25T06:48:28;2.03;;;0.90;;
66707;SDS011;53622;0.000;0.000;2023-03-25T06:51:00;3.75;;;0.80;;
66707;SDS011;53622;0.000;0.000;2023-03-25T06:54:01;3.92;;;0.70;;
66707;SDS011;53622;0.000;0.000;2023-03-25T06:56:50;3.00;;;0.60;;
66707;SDS011;53622;0.000;0.000;2023-03-25T06:59:19;7.03;;;1.05;;
66707;SDS011;53622;0.000;0.000;2023-03-25T07:01:49;6.43;;;0.90;;
66707;SDS011;53622;0.000;0.000;2023-03-25T07:04:18;6.57;;;0.80;;
66707;SDS011;53622;0.000;0.000;2023-03-25T07:06:48;2.95;;;1.00;;
66707;SDS011;53622;0.000;0.000;2023-03-25T07:09:17;2.00;;;0.60;;
66707;SDS011;53622;0.000;0.000;2023-03-25T07:11:46;2.75;;;0.90;;
66707;SDS011;53622;0.000;0.000;2023-03-25T07:14:17;4.90;;;0.82;;
66707;SDS011;53622;0.000;0.000;2023-03-25T07:16:46;3.08;;;0.60;;
66707;SDS011;53622;0.000;0.000;2023-03-25T07:19:15;2.42;;;0.60;;
66707;SDS011;53622;0.000;0.000;2023-03-25T07:21:45;1.42;;;0.93;;
66707;SDS011;53622;0.000;0.000;2023-03-25T07:24:14;5.78;;;1.02;;
66707;SDS011;53622;0.000;0.000;2023-03-25T07:26:43;3.88;;;0.82;;
66707;SDS011;53622;0.000;0.000;2023-03-25T07:29:14;7.85;;;0.90;;
66707;SDS011;53622;0.000;0.000;2023-03-25T07:31:45;3.72;;;0.93;;
66707;SDS011;53622;0.000;0.000;2023-03-25T07:34:14;6.95;;;1.20;;
66707;SDS011;53622;0.000;0.000;2023-03-25T07:36:43;11.85;;;1.52;;
66707;SDS011;53622;0.000;0.000;2023-03-25T07:39:12;7.18;;;1.50;;
66707;SDS011;53622;0.000;0.000;2023-03-25T07:41:42;8.35;;;1.30;;
66707;SDS011;53622;0.000;0.000;2023-03-25T07:44:33;7.45;;;0.95;;
66707;SDS011;53622;0.000;0.000;2023-03-25T07:47:02;5.15;;;1.10;;
66707;SDS011;53622;0.000;0.000;2023-03-25T07:49:32;7.82;;;1.40;;
66707;SDS011;53622;0.000;0.000;2023-03-25T07:52:01;6.95;;;0.90;;
66707;SDS011;53622;0.000;0.000;2023-03-25T07:54:30;2.60;;;0.93;;
66707;SDS011;53622;0.000;0.000;2023-03-25T07:57:00;7.82;;;1.02;;
66707;SDS011;53622;0.000;0.000;2023-03-25T07:59:29;3.15;;;0.82;;
66707;SDS011;53622;0.000;0.000;2023-03-25T08:02:00;5.65;;;0.93;;
66707;SDS011;53622;0.000;0.000;2023-03-25T08:04:30;5.10;;;0.90;;
66707;SDS011;53622;0.000;0.000;2023-03-25T08:07:02;5.38;;;0.88;;
66707;SDS011;53622;0.000;0.000;2023-03-25T08:09:31;4.57;;;1.15;;
66707;SDS011;53622;0.000;0.000;2023-03-25T08:12:01;4.80;;;0.98;;
66707;SDS011;53622;0.000;0.000;2023-03-25T08:14:30;4.35;;;0.90;;
66707;SDS011;53622;0.000;0.000;2023-03-25T08:17:01;4.55;;;0.80;;
66707;SDS011;53622;0.000;0.000;2023-03-25T08:19:32;3.65;;;0.93;;
66707;SDS011;53622;0.000;0.000;2023-03-25T08:22:03;3.90;;;0.77;;
66707;SDS011;53622;0.000;0.000;2023-03-25T08:24:32;6.00;;;1.10;;
66707;SDS011;53622;0.000;0.000;2023-03-25T08:27:01;4.38;;;0.85;;
66707;SDS011;53622;0.000;0.000;2023-03-25T08:29:41;3.40;;;0.80;;
66707;SDS011;53622;0.000;0.000;2023-03-25T08:32:14;2.03;;;0.68;;
66707;SDS011;53622;0.000;0.000;2023-03-25T08:34:44;7.30;;;1.38;;
66707;SDS011;53622;0.000;0.000;2023-03-25T08:37:13;6.43;;;1.30;;
66707;SDS011;53622;0.000;0.000;2023-03-25T08:39:42;7.35;;;1.25;;
66707;SDS011;53622;0.000;0.000;2023-03-25T08:42:13;9.43;;;1.48;;
66707;SDS011;53622;0.000;0.000;2023-03-25T08:44:42;6.10;;;1.00;;
66707;SDS011;53622;0.000;0.000;2023-03-25T08:47:11;3.55;;;1.20;;
66707;SDS011;53622;0.000;0.000;2023-03-25T08:49:42;5.50;;;1.02;;
66707;SDS011;53622;0.000;0.000;2023-03-25T08:52:11;4.32;;;1.45;;
66707;SDS011;53622;0.000;0.000;2023-03-25T08:54:40;7.28;;;1.30;;
66707;SDS011;53622;0.000;0.000;2023-03-25T08:57:10;5.35;;;1.20;;
66707;SDS011;53622;0.000;0.000;2023-03-25T08:59:39;21.38;;;2.13;;
66707;SDS011;53622;0.000;0.000;2023-03-25T09:02:09;6.30;;;1.70;;
66707;SDS011;53622;0.000;0.000;2023-03-25T09:04:40;6.45;;;1.77;;
66707;SDS011;53622;0.000;0.000;2023-03-25T09:07:10;5.63;;;1.17;;
66707;SDS011;53622;0.000;0.000;2023-03-25T09:09:39;4.88;;;1.52;;
66707;SDS011;53622;0.000;0.000;2023-03-25T09:12:09;5.30;;;1.30;;
66707;SDS011;53622;0.000;0.000;2023-03-25T09:14:38;5.97;;;1.25;;
66707;SDS011;53622;0.000;0.000;2023-03-25T09:17:07;7.53;;;1.50;;
66707;SDS011;53622;0.000;0.000;2023-03-25T09:19:37;6.68;;;1.30;;
66707;SDS011;53622;0.000;0.000;2023-03-25T09:22:08;5.25;;;1.20;;
66707;SDS011;53622;0.000;0.000;2023-03-25T09:24:37;5.40;;;1.25;;
66707;SDS011;53622;0.000;0.000;2023-03-25T09:27:07;5.20;;;1.10;;
66707;SDS011;53622;0.000;0.000;2023-03-25T09:29:36;3.03;;;1.05;;
66707;SDS011;53622;0.000;0.000;2023-03-25T09:32:05;4.28;;;0.93;;
66707;SDS011;53622;0.000;0.000;2023-03-25T09:34:35;3.63;;;1.10;;
66707;SDS011;53622;0.000;0.000;2023-03-25T09:37:05;5.88;;;1.17;;
66707;SDS011;53622;0.000;0.000;2023-03-25T09:39:36;4.85;;;1.48;;
66707;SDS011;53622;0.000;0.000;2023-03-25T09:42:12;3.22;;;1.27;;
66707;SDS011;53622;0.000;0.000;2023-03-25T09:44:59;3.88;;;1.10;;
66707;SDS011;53622;0.000;0.000;2023-03-25T09:47:39;2.95;;;0.90;;
66707;SDS011;53622;0.000;0.000;2023-03-25T09:50:13;3.85;;;0.80;;
66707;SDS011;53622;0.000;0.000;2023-03-25T09:52:47;4.57;;;1.10;;
66707;SDS011;53622;0.000;0.000;2023-03-25T09:55:22;3.50;;;1.08;;
66707;SDS011;53622;0.000;0.000;2023-03-25T09:57:55;4.63;;;1.10;;
66707;SDS011;53622;0.000;0.000;2023-03-25T10:00:29;1.98;;;1.00;;
66707;SDS011;53622;0.000;0.000;2023-03-25T10:03:03;4.05;;;1.08;;
66707;SDS011;53622;0.000;0.000;2023-03-25T10:05:49;2.35;;;0.80;;
66707;SDS011;53622;0.000;0.000;2023-03-25T10:08:53;1.92;;;0.85;;
66707;SDS011;53622;0.000;0.000;2023-03-25T10:11:46;2.20;;;0.85;;
66707;SDS011;53622;0.000;0.000;2023-03-25T10:14:25;3.33;;;1.13;;
66707;SDS011;53622;0.000;0.000;2023-03-25T10:17:04;3.65;;;1.10;;
66707;SDS011;53622;0.000;0.000;2023-03-25T10:19:42;3.47;;;0.90;;
66707;SDS011;53622;0.000;0.000;2023-03-25T10:22:21;1.48;;;0.80;;
66707;SDS011;53622;0.000;0.000;2023-03-25T10:24:57;4.85;;;0.80;;
66707;SDS011;53622;0.000;0.000;2023-03-25T10:27:31;2.67;;;1.10;;
66707;SDS011;53622;0.000;0.000;2023-03-25T10:30:06;4.45;;;1.13;;
66707;SDS011;53622;0.000;0.000;2023-03-25T10:32:42;3.03;;;0.80;;
66707;SDS011;53622;0.000;0.000;2023-03-25T10:35:52;2.08;;;0.80;;
66707;SDS011;53622;0.000;0.000;2023-03-25T10:43:31;1.20;;;0.68;;
66707;SDS011;53622;0.000;0.000;2023-03-25T10:48:09;2.60;;;1.15;;
66707;SDS011;53622;0.000;0.000;2023-03-25T10:50:08;3.83;;;1.10;;
66707;SDS011;53622;0.000;0.000;2023-03-25T10:52:43;2.17;;;0.80;;
66707;SDS011;53622;0.000;0.000;2023-03-25T10:55:22;1.92;;;0.80;;
66707;SDS011;53622;0.000;0.000;2023-03-25T10:57:55;1.17;;;0.80;;
66707;SDS011;53622;0.000;0.000;2023-03-25T11:00:26;1.85;;;0.60;;
66707;SDS011;53622;0.000;0.000;2023-03-25T11:03:07;2.35;;;0.82;;
66707;SDS011;53622;0.000;0.000;2023-03-25T11:06:05;1.25;;;0.82;;
66707;SDS011;53622;0.000;0.000;2023-03-25T11:08:35;1.52;;;0.57;;
66707;SDS011;53622;0.000;0.000;2023-03-25T11:11:10;1.33;;;0.95;;
66707;SDS011;53622;0.000;0.000;2023-03-25T11:13:42;1.85;;;1.10;;
66707;SDS011;53622;0.000;0.000;2023-03-25T11:16:13;2.10;;;1.00;;
66707;SDS011;53622;0.000;0.000;2023-03-25T11:18:49;2.97;;;0.80;;
66707;SDS011;53622;0.000;0.000;2023-03-25T11:21:20;2.05;;;1.23;;
66707;SDS011;53622;0.000;0.000;2023-03-25T11:23:50;1.73;;;0.90;;
66707;SDS011;53622;0.000;0.000;2023-03-25T11:26:20;2.13;;;0.80;;
66707;SDS011;53622;0.000;0.000;2023-03-25T11:28:52;5.05;;;1.00;;
66707;SDS011;53622;0.000;0.000;2023-03-25T11:31:26;4.90;;;1.25;;
66707;SDS011;53622;0.000;0.000;2023-03-25T11:34:02;3.03;;;1.30;;
66707;SDS011;53622;0.000;0.000;2023-03-25T11:36:52;5.05;;;1.58;;
66707;SDS011;53622;0.000;0.000;2023-03-25T11:39:24;4.95;;;1.38;;
66707;SDS011;53622;0.000;0.000;2023-03-25T11:41:58;5.53;;;1.40;;
66707;SDS011;53622;0.000;0.000;2023-03-25T11:44:30;5.93;;;1.20;;
66707;SDS011;53622;0.000;0.000;2023-03-25T11:47:03;3.38;;;1.25;;
66707;SDS011;53622;0.000;0.000;2023-03-25T11:49:38;4.03;;;1.42;;
66707;SDS011;53622;0.000;0.000;2023-03-25T11:52:11;3.13;;;1.50;;
66707;SDS011;53622;0.000;0.000;2023-03-25T11:54:46;4.82;;;1.90;;
66707;SDS011;53622;0.000;0.000;2023-03-25T11:57:16;3.42;;;1.80;;
66707;SDS011;53622;0.000;0.000;2023-03-25T11:59:49;3.17;;;1.45;;
66707;SDS011;53622;0.000;0.000;2023-03-25T12:02:39;2.60;;;1.75;;
66707;SDS011;53622;0.000;0.000;2023-03-25T12:05:11;3.67;;;2.03;;
66707;SDS011;53622;0.000;0.000;2023-03-25T12:07:43;3.05;;;1.70;;
66707;SDS011;53622;0.000;0.000;2023-03-25T12:10:15;3.55;;;2.00;;
66707;SDS011;53622;0.000;0.000;2023-03-25T12:12:47;5.00;;;1.70;;
66707;SDS011;53622;0.000;0.000;2023-03-25T12:15:30;4.93;;;1.88;;
66707;SDS011;53622;0.000;0.000;2023-03-25T12:18:15;3.33;;;1.58;;
66707;SDS011;53622;0.000;0.000;2023-03-25T12:20:56;5.05;;;2.10;;
66707;SDS011;53622;0.000;0.000;2023-03-25T12:23:35;3.53;;;1.77;;
66707;SDS011;53622;0.000;0.000;2023-03-25T12:26:10;3.83;;;1.80;;
66707;SDS011;53622;0.000;0.000;2023-03-25T12:31:36;3.80;;;2.00;;
66707;SDS011;53622;0.000;0.000;2023-03-25T12:34:19;3.88;;;1.95;;
66707;SDS011;53622;0.000;0.000;2023-03-25T12:37:02;5.03;;;2.40;;
66707;SDS011;53622;0.000;0.000;2023-03-25T12:39:43;4.30;;;2.00;;
66707;SDS011;53622;0.000;0.000;2023-03-25T12:42:24;6.55;;;1.95;;
66707;SDS011;53622;0.000;0.000;2023-03-25T12:45:02;6.72;;;2.22;;
66707;SDS011;53622;0.000;0.000;2023-03-25T12:47:45;4.45;;;2.20;;
66707;SDS011;53622;0.000;0.000;2023-03-25T12:50:25;5.68;;;2.13;;
66707;SDS011;53622;0.000;0.000;2023-03-25T12:53:02;6.22;;;2.20;;
66707;SDS011;53622;0.000;0.000;2023-03-25T12:55:44;3.72;;;2.25;;
66707;SDS011;53622;0.000;0.000;2023-03-25T13:01:22;4.47;;;2.10;;
66707;SDS011;53622;0.000;0.000;2023-03-25T13:04:04;4.47;;;2.10;;
66707;SDS011;53622;0.000;0.000;2023-03-25T13:06:41;3.50;;;2.28;;
66707;SDS011;53622;0.000;0.000;2023-03-25T13:09:16;3.50;;;1.60;;
66707;SDS011;53622;0.000;0.000;2023-03-25T13:11:50;2.53;;;1.67;;
66707;SDS011;53622;0.000;0.000;2023-03-25T13:14:23;3.95;;;2.00;;
66707;SDS011;53622;0.000;0.000;2023-03-25T13:16:56;5.28;;;1.60;;
66707;SDS011;53622;0.000;0.000;2023-03-25T13:19:29;5.15;;;1.80;;
66707;SDS011;53622;0.000;0.000;2023-03-25T13:22:04;3.15;;;1.67;;
66707;SDS011;53622;0.000;0.000;2023-03-25T13:24:42;4.57;;;1.50;;
66707;SDS011;53622;0.000;0.000;2023-03-25T13:27:17;6.20;;;1.73;;
66707;SDS011;53622;0.000;0.000;2023-03-25T13:29:48;2.47;;;1.40;;
66707;SDS011;53622;0.000;0.000;2023-03-25T13:32:22;3.80;;;1.70;;
66707;SDS011;53622;0.000;0.000;2023-03-25T13:34:56;7.72;;;1.80;;
66707;SDS011;53622;0.000;0.000;2023-03-25T13:37:32;4.82;;;1.75;;
66707;SDS011;53622;0.000;0.000;2023-03-25T13:40:09;5.43;;;1.95;;
66707;SDS011;53622;0.000;0.000;2023-03-25T13:42:56;4.05;;;1.60;;
66707;SDS011;53622;0.000;0.000;2023-03-25T13:45:30;4.38;;;1.60;;
66707;SDS011;53622;0.000;0.000;2023-03-25T13:48:14;3.22;;;1.45;;
66707;SDS011;53622;0.000;0.000;2023-03-25T13:50:50;5.03;;;1.55;;
66707;SDS011;53622;0.000;0.000;2023-03-25T13:53:23;3.10;;;1.40;;
66707;SDS011;53622;0.000;0.000;2023-03-25T13:56:00;3.13;;;1.35;;
66707;SDS011;53622;0.000;0.000;2023-03-25T13:58:51;5.05;;;1.50;;
66707;SDS011;53622;0.000;0.000;2023-03-25T14:01:35;3.67;;;1.17;;
66707;SDS011;53622;0.000;0.000;2023-03-25T14:10:25;3.80;;;1.33;;
66707;SDS011;53622;0.000;0.000;2023-03-25T14:13:05;3.38;;;1.40;;
66707;SDS011;53622;0.000;0.000;2023-03-25T14:15:39;3.25;;;1.30;;
66707;SDS011;53622;0.000;0.000;2023-03-25T14:18:14;2.95;;;1.50;;
66707;SDS011;53622;0.000;0.000;2023-03-25T14:20:45;1.75;;;1.27;;
66707;SDS011;53622;0.000;0.000;2023-03-25T14:23:17;3.75;;;1.40;;
66707;SDS011;53622;0.000;0.000;2023-03-25T14:25:53;3.75;;;1.58;;
66707;SDS011;53622;0.000;0.000;2023-03-25T14:28:30;2.83;;;1.20;;
66707;SDS011;53622;0.000;0.000;2023-03-25T14:31:06;2.45;;;1.45;;
66707;SDS011;53622;0.000;0.000;2023-03-25T14:39:58;4.78;;;1.35;;
66707;SDS011;53622;0.000;0.000;2023-03-25T14:42:41;4.50;;;1.40;;
66707;SDS011;53622;0.000;0.000;2023-03-25T14:45:32;5.40;;;1.75;;
66707;SDS011;53622;0.000;0.000;2023-03-25T14:48:24;8.35;;;1.70;;
66707;SDS011;53622;0.000;0.000;2023-03-25T14:51:21;5.07;;;1.10;;
66707;SDS011;53622;0.000;0.000;2023-03-25T14:54:19;3.55;;;1.00;;
66707;SDS011;53622;0.000;0.000;2023-03-25T14:56:57;3.20;;;1.00;;
66707;SDS011;53622;0.000;0.000;2023-03-25T14:59:34;2.78;;;0.80;;
66707;SDS011;53622;0.000;0.000;2023-03-25T15:02:09;4.00;;;0.90;;
66707;SDS011;53622;0.000;0.000;2023-03-25T15:04:44;2.90;;;1.20;;
66707;SDS011;53622;0.000;0.000;2023-03-25T15:10:08;7.72;;;1.20;;
66707;SDS011;53622;0.000;0.000;2023-03-25T15:12:50;3.75;;;1.33;;
66707;SDS011;53622;0.000;0.000;2023-03-25T15:15:28;4.57;;;1.42;;
66707;SDS011;53622;0.000;0.000;2023-03-25T15:18:00;2.50;;;1.25;;
66707;SDS011;53622;0.000;0.000;2023-03-25T15:20:30;8.35;;;1.52;;
66707;SDS011;53622;0.000;0.000;2023-03-25T15:26:12;6.00;;;1.65;;
66707;SDS011;53622;0.000;0.000;2023-03-25T15:29:08;5.03;;;1.40;;
66707;SDS011;53622;0.000;0.000;2023-03-25T15:31:52;4.78;;;1.30;;
66707;SDS011;53622;0.000;0.000;2023-03-25T15:34:33;4.63;;;1.45;;
66707;SDS011;53622;0.000;0.000;2023-03-25T15:40:16;4.95;;;1.17;;
66707;SDS011;53622;0.000;0.000;2023-03-25T15:43:05;4.20;;;1.30;;
66707;SDS011;53622;0.000;0.000;2023-03-25T15:46:04;4.72;;;1.52;;
66707;SDS011;53622;0.000;0.000;2023-03-25T15:48:53;4.05;;;1.30;;
66707;SDS011;53622;0.000;0.000;2023-03-25T15:51:46;4.00;;;1.45;;
66707;SDS011;53622;0.000;0.000;2023-03-25T15:54:30;3.97;;;1.20;;
66707;SDS011;53622;0.000;0.000;2023-03-25T15:57:04;3.05;;;1.42;;
66707;SDS011;53622;0.000;0.000;2023-03-25T15:59:43;4.65;;;1.38;;
66707;SDS011;53622;0.000;0.000;2023-03-25T16:02:23;2.88;;;1.25;;
66707;SDS011;53622;0.000;0.000;2023-03-25T16:04:59;2.03;;;1.20;;
66707;SDS011;53622;0.000;0.000;2023-03-25T16:07:30;2.92;;;1.20;;
66707;SDS011;53622;0.000;0.000;2023-03-25T16:10:10;3.88;;;1.33;;
66707;SDS011;53622;0.000;0.000;2023-03-25T16:12:43;3.25;;;1.27;;
66707;SDS011;53622;0.000;0.000;2023-03-25T16:15:14;3.88;;;1.30;;
66707;SDS011;53622;0.000;0.000;2023-03-25T16:17:44;3.95;;;1.25;;
66707;SDS011;53622;0.000;0.000;2023-03-25T16:20:16;6.22;;;1.35;;
66707;SDS011;53622;0.000;0.000;2023-03-25T16:22:51;6.45;;;1.95;;
66707;SDS011;53622;0.000;0.000;2023-03-25T16:25:25;4.82;;;1.38;;
66707;SDS011;53622;0.000;0.000;2023-03-25T16:28:03;8.60;;;1.80;;
66707;SDS011;53622;0.000;0.000;2023-03-25T16:30:34;6.25;;;1.30;;
66707;SDS011;53622;0.000;0.000;2023-03-25T16:33:12;6.53;;;1.23;;
66707;SDS011;53622;0.000;0.000;2023-03-25T16:35:45;5.95;;;1.17;;
66707;SDS011;53622;0.000;0.000;2023-03-25T16:38:17;5.82;;;1.20;;
66707;SDS011;53622;0.000;0.000;2023-03-25T16:40:49;7.85;;;1.33;;
66707;SDS011;53622;0.000;0.000;2023-03-25T16:43:21;4.80;;;1.63;;
66707;SDS011;53622;0.000;0.000;2023-03-25T16:45:54;5.90;;;1.35;;
66707;SDS011;53622;0.000;0.000;2023-03-25T16:48:26;21.17;;;2.15;;
66707;SDS011;53622;0.000;0.000;2023-03-25T16:51:00;13.38;;;2.00;;
66707;SDS011;53622;0.000;0.000;2023-03-25T16:53:35;14.73;;;2.58;;
66707;SDS011;53622;0.000;0.000;2023-03-25T16:56:19;13.48;;;2.00;;
66707;SDS011;53622;0.000;0.000;2023-03-25T16:58:54;19.02;;;2.17;;
66707;SDS011;53622;0.000;0.000;2023-03-25T17:01:27;15.25;;;2.15;;
66707;SDS011;53622;0.000;0.000;2023-03-25T17:04:05;17.42;;;2.05;;
66707;SDS011;53622;0.000;0.000;2023-03-25T17:06:39;8.85;;;1.67;;
66707;SDS011;53622;0.000;0.000;2023-03-25T17:09:13;9.43;;;1.90;;
66707;SDS011;53622;0.000;0.000;2023-03-25T17:11:45;10.10;;;1.92;;
66707;SDS011;53622;0.000;0.000;2023-03-25T17:14:19;8.98;;;1.90;;
66707;SDS011;53622;0.000;0.000;2023-03-25T17:16:52;8.38;;;1.65;;
66707;SDS011;53622;0.000;0.000;2023-03-25T17:19:22;17.15;;;2.03;;
66707;SDS011;53622;0.000;0.000;2023-03-25T17:22:13;19.35;;;2.30;;
66707;SDS011;53622;0.000;0.000;2023-03-25T17:24:49;10.82;;;1.77;;
66707;SDS011;53622;0.000;0.000;2023-03-25T17:27:27;8.25;;;1.48;;
66707;SDS011;53622;0.000;0.000;2023-03-25T17:30:17;11.70;;;1.50;;
66707;SDS011;53622;0.000;0.000;2023-03-25T17:32:49;12.65;;;1.52;;
66707;SDS011;53622;0.000;0.000;2023-03-25T17:35:22;12.43;;;1.65;;
66707;SDS011;53622;0.000;0.000;2023-03-25T17:37:55;8.27;;;1.50;;
66707;SDS011;53622;0.000;0.000;2023-03-25T17:40:26;5.63;;;1.83;;
66707;SDS011;53622;0.000;0.000;2023-03-25T17:42:56;9.30;;;1.80;;
66707;SDS011;53622;0.000;0.000;2023-03-25T17:45:25;11.60;;;1.75;;
66707;SDS011;53622;0.000;0.000;2023-03-25T17:47:54;6.72;;;1.70;;
66707;SDS011;53622;0.000;0.000;2023-03-25T17:50:24;7.20;;;1.25;;
66707;SDS011;53622;0.000;0.000;2023-03-25T17:53:08;5.68;;;1.55;;
66707;SDS011;53622;0.000;0.000;2023-03-25T17:55:46;6.13;;;1.50;;
66707;SDS011;53622;0.000;0.000;2023-03-25T17:58:17;8.85;;;1.73;;
66707;SDS011;53622;0.000;0.000;2023-03-25T18:00:49;7.50;;;1.60;;
66707;SDS011;53622;0.000;0.000;2023-03-25T18:03:21;15.18;;;1.88;;
66707;SDS011;53622;0.000;0.000;2023-03-25T18:06:07;5.38;;;1.60;;
66707;SDS011;53622;0.000;0.000;2023-03-25T18:08:40;7.95;;;1.70;;
66707;SDS011;53622;0.000;0.000;2023-03-25T18:11:09;11.63;;;1.48;;
66707;SDS011;53622;0.000;0.000;2023-03-25T18:13:39;13.00;;;2.35;;
66707;SDS011;53622;0.000;0.000;2023-03-25T18:16:21;7.13;;;1.85;;
66707;SDS011;53622;0.000;0.000;2023-03-25T18:18:50;6.18;;;1.73;;
66707;SDS011;53622;0.000;0.000;2023-03-25T18:21:20;10.00;;;1.58;;
66707;SDS011;53622;0.000;0.000;2023-03-25T18:23:51;9.27;;;1.77;;
66707;SDS011;53622;0.000;0.000;2023-03-25T18:26:21;18.35;;;2.40;;
66707;SDS011;53622;0.000;0.000;2023-03-25T18:28:50;13.25;;;1.98;;
66707;SDS011;53622;0.000;0.000;2023-03-25T18:31:19;18.80;;;2.00;;
66707;SDS011;53622;0.000;0.000;2023-03-25T18:33:49;15.85;;;2.17;;
66707;SDS011;53622;0.000;0.000;2023-03-25T18:36:19;10.13;;;2.10;;
66707;SDS011;53622;0.000;0.000;2023-03-25T18:38:48;8.98;;;1.77;;
66707;SDS011;53622;0.000;0.000;2023-03-25T18:41:20;8.63;;;1.77;;
66707;SDS011;53622;0.000;0.000;2023-03-25T18:43:50;8.50;;;1.60;;
66707;SDS011;53622;0.000;0.000;2023-03-25T18:46:19;10.73;;;1.77;;
66707;SDS011;53622;0.000;0.000;2023-03-25T18:48:49;8.43;;;1.60;;
66707;SDS011;53622;0.000;0.000;2023-03-25T18:51:18;15.32;;;1.73;;
66707;SDS011;53622;0.000;0.000;2023-03-25T18:53:47;12.57;;;1.58;;
66707;SDS011;53622;0.000;0.000;2023-03-25T18:56:18;10.13;;;1.80;;
66707;SDS011;53622;0.000;0.000;2023-03-25T18:58:47;19.48;;;2.03;;
66707;SDS011;53622;0.000;0.000;2023-03-25T19:01:17;14.40;;;2.53;;